createdAt,value
2017-12-27T00:00:10.341Z,3.20
2017-12-27T00:02:44.157Z,2.57
2017-12-27T00:05:17.939Z,2.50
2017-12-27T00:07:52.617Z,2.77
2017-12-27T00:10:26.356Z,2.67
2017-12-27T00:13:13.173Z,2.30
2017-12-27T00:15:47.002Z,2.30
2017-12-27T00:18:20.944Z,2.30
2017-12-27T00:20:54.867Z,3.07
2017-12-27T00:23:28.550Z,2.97
2017-12-27T00:26:02.270Z,2.23
2017-12-27T00:28:36.026Z,2.47
2017-12-27T00:31:10.641Z,1.90
2017-12-27T00:33:38.804Z,2.37
2017-12-27T00:36:06.928Z,2.03
2017-12-27T00:38:35.087Z,2.20
2017-12-27T00:41:03.218Z,1.90
2017-12-27T00:43:32.126Z,1.93
2017-12-27T00:46:00.273Z,2.90
2017-12-27T00:48:28.412Z,2.53
2017-12-27T00:50:56.565Z,2.60
2017-12-27T00:53:24.712Z,2.43
2017-12-27T00:55:52.872Z,1.87
2017-12-27T00:58:21.773Z,2.10
2017-12-27T01:00:49.905Z,2.17
2017-12-27T01:03:18.059Z,2.57
2017-12-27T01:05:46.176Z,2.87
2017-12-27T01:08:14.961Z,3.60
2017-12-27T01:10:43.091Z,3.97
2017-12-27T01:13:11.250Z,3.10
2017-12-27T01:15:39.372Z,3.13
2017-12-27T01:18:08.298Z,2.90
2017-12-27T01:20:36.418Z,2.77
2017-12-27T01:23:05.309Z,3.33
2017-12-27T01:25:33.942Z,2.83
2017-12-27T01:28:02.067Z,3.10
2017-12-27T01:30:30.764Z,3.13
2017-12-27T01:32:58.869Z,3.17
2017-12-27T01:35:27.000Z,2.90
2017-12-27T01:37:55.144Z,2.67
2017-12-27T01:40:23.311Z,2.80
2017-12-27T01:42:52.195Z,2.80
2017-12-27T01:45:22.629Z,2.70
2017-12-27T01:47:51.529Z,2.30
2017-12-27T01:50:20.420Z,2.60
2017-12-27T01:52:48.589Z,2.33
2017-12-27T01:55:16.695Z,2.13
2017-12-27T01:57:44.836Z,2.20
2017-12-27T02:00:12.966Z,2.47
2017-12-27T02:02:41.132Z,2.80
2017-12-27T02:05:09.252Z,2.60
2017-12-27T02:07:38.172Z,3.20
2017-12-27T02:10:07.621Z,3.10
2017-12-27T02:12:35.740Z,3.30
2017-12-27T02:15:03.882Z,2.93
2017-12-27T02:17:32.039Z,3.17
2017-12-27T02:20:00.933Z,3.10
2017-12-27T02:22:29.072Z,3.03
2017-12-27T02:24:57.199Z,3.10
2017-12-27T02:27:26.107Z,3.00
2017-12-27T02:29:54.987Z,3.10
2017-12-27T02:32:23.144Z,3.17
2017-12-27T02:34:51.256Z,2.77
2017-12-27T02:37:19.404Z,3.07
2017-12-27T02:42:54.096Z,2.63
2017-12-27T02:45:22.233Z,3.17
2017-12-27T02:47:51.156Z,3.50
2017-12-27T02:50:19.299Z,3.10
2017-12-27T02:52:48.164Z,2.97
2017-12-27T02:55:16.306Z,3.10
2017-12-27T02:57:45.207Z,3.03
2017-12-27T03:00:15.699Z,3.23
2017-12-27T03:02:43.847Z,3.70
2017-12-27T03:05:11.972Z,3.40
2017-12-27T03:07:40.108Z,3.00
2017-12-27T03:10:09.003Z,3.17
2017-12-27T03:12:37.149Z,3.90
2017-12-27T03:15:05.347Z,3.00
2017-12-27T03:17:33.509Z,3.43
2017-12-27T03:20:01.623Z,3.17
2017-12-27T03:22:29.802Z,3.20
2017-12-27T03:24:57.936Z,3.20
2017-12-27T03:27:26.819Z,3.00
2017-12-27T03:29:54.988Z,3.63
2017-12-27T03:32:23.117Z,3.10
2017-12-27T03:34:51.999Z,3.60
2017-12-27T03:37:20.893Z,3.73
2017-12-27T03:39:49.040Z,3.70
2017-12-27T03:42:17.197Z,3.00
2017-12-27T03:44:45.320Z,2.57
2017-12-27T03:47:13.451Z,2.80
2017-12-27T03:49:42.433Z,2.60
2017-12-27T03:52:10.551Z,2.90
2017-12-27T03:54:39.456Z,2.60
2017-12-27T03:57:08.352Z,2.90
2017-12-27T03:59:37.252Z,2.90
2017-12-27T04:02:06.145Z,2.53
2017-12-27T04:04:34.302Z,2.80
2017-12-27T04:07:02.429Z,2.40
2017-12-27T04:09:31.300Z,2.23
2017-12-27T04:11:59.450Z,2.30
2017-12-27T04:14:27.581Z,2.70
2017-12-27T04:16:55.826Z,2.47
2017-12-27T04:19:24.694Z,2.20
2017-12-27T04:21:53.607Z,3.07
2017-12-27T04:24:22.497Z,2.43
2017-12-27T04:26:51.394Z,2.80
2017-12-27T04:29:19.521Z,3.07
2017-12-27T04:31:47.653Z,3.03
2017-12-27T04:34:17.300Z,2.83
2017-12-27T04:36:47.361Z,2.87
2017-12-27T04:39:15.824Z,2.63
2017-12-27T04:41:43.929Z,2.40
2017-12-27T04:44:12.612Z,2.40
2017-12-27T04:46:41.496Z,2.60
2017-12-27T04:49:09.635Z,2.70
2017-12-27T04:51:37.768Z,2.33
2017-12-27T04:54:05.912Z,2.37
2017-12-27T04:56:34.027Z,2.33
2017-12-27T04:59:02.179Z,2.40
2017-12-27T05:01:30.301Z,2.30
2017-12-27T05:03:58.431Z,2.47
2017-12-27T05:06:26.549Z,2.47
2017-12-27T05:08:54.699Z,2.00
2017-12-27T05:11:22.829Z,2.77
2017-12-27T05:13:50.964Z,2.40
2017-12-27T05:16:19.850Z,2.60
2017-12-27T05:18:47.980Z,2.70
2017-12-27T05:21:16.099Z,2.97
2017-12-27T05:23:45.107Z,3.50
2017-12-27T05:26:13.257Z,3.57
2017-12-27T05:28:41.409Z,3.50
2017-12-27T05:31:09.532Z,2.77
2017-12-27T05:33:38.479Z,2.63
2017-12-27T05:36:07.733Z,2.57
2017-12-27T05:38:37.826Z,2.93
2017-12-27T05:41:05.961Z,3.57
2017-12-27T05:43:34.086Z,3.13
2017-12-27T05:46:02.916Z,2.17
2017-12-27T05:48:31.804Z,2.30
2017-12-27T05:51:00.723Z,2.00
2017-12-27T05:53:28.856Z,2.17
2017-12-27T05:55:56.983Z,2.37
2017-12-27T05:58:25.879Z,2.40
2017-12-27T06:00:54.776Z,2.23
2017-12-27T06:03:23.684Z,2.80
2017-12-27T06:05:51.804Z,2.53
2017-12-27T06:08:19.969Z,2.50
2017-12-27T06:10:48.101Z,3.10
2017-12-27T06:13:16.231Z,2.47
2017-12-27T06:15:45.116Z,2.73
2017-12-27T06:18:13.263Z,2.83
2017-12-27T06:20:41.384Z,2.97
2017-12-27T06:23:09.538Z,3.20
2017-12-27T06:25:37.660Z,2.70
2017-12-27T06:28:07.297Z,2.97
2017-12-27T06:30:36.212Z,2.37
2017-12-27T06:33:05.921Z,2.93
2017-12-27T06:35:35.248Z,2.30
2017-12-27T06:38:05.019Z,2.63
2017-12-27T06:40:33.152Z,3.20
2017-12-27T06:43:02.042Z,2.20
2017-12-27T06:45:30.202Z,2.50
2017-12-27T06:47:58.341Z,2.70
2017-12-27T06:50:27.248Z,2.80
2017-12-27T06:52:56.410Z,2.90
2017-12-27T06:55:24.576Z,2.67
2017-12-27T06:57:54.533Z,2.50
2017-12-27T07:00:22.632Z,2.70
2017-12-27T07:02:50.768Z,3.10
2017-12-27T07:05:23.849Z,2.63
2017-12-27T07:07:51.976Z,2.80
2017-12-27T07:10:20.104Z,2.53
2017-12-27T07:12:49.008Z,2.40
2017-12-27T07:15:17.961Z,2.40
2017-12-27T07:17:46.096Z,2.20
2017-12-27T07:20:14.998Z,2.70
2017-12-27T07:22:43.926Z,2.30
2017-12-27T07:25:12.816Z,2.77
2017-12-27T07:27:40.960Z,2.10
2017-12-27T07:30:09.867Z,2.30
2017-12-27T07:32:37.990Z,2.00
2017-12-27T07:35:06.903Z,2.37
2017-12-27T07:37:35.796Z,2.57
2017-12-27T07:40:03.934Z,2.30
2017-12-27T07:42:32.052Z,2.53
2017-12-27T07:45:00.979Z,2.70
2017-12-27T07:47:29.160Z,2.07
2017-12-27T07:49:58.084Z,2.70
2017-12-27T07:52:26.193Z,2.70
2017-12-27T07:54:54.345Z,2.63
2017-12-27T07:57:22.485Z,2.83
2017-12-27T07:59:51.549Z,2.93
2017-12-27T08:02:20.489Z,2.77
2017-12-27T08:04:48.611Z,3.10
2017-12-27T08:07:18.368Z,23.40
2017-12-27T08:09:48.468Z,15.70
2017-12-27T08:12:18.160Z,5.70
2017-12-27T08:14:46.312Z,5.77
2017-12-27T08:17:14.453Z,5.13
2017-12-27T08:19:43.342Z,5.03
2017-12-27T08:22:11.498Z,5.17
2017-12-27T08:24:39.617Z,5.87
2017-12-27T08:27:07.798Z,5.90
2017-12-27T08:29:35.940Z,5.73
2017-12-27T08:32:04.068Z,9.00
2017-12-27T08:34:32.240Z,6.87
2017-12-27T08:37:01.342Z,5.07
2017-12-27T08:39:29.487Z,4.10
2017-12-27T08:41:58.377Z,5.27
2017-12-27T08:44:26.505Z,7.17
2017-12-27T08:46:55.813Z,8.57
2017-12-27T08:49:23.943Z,5.50
2017-12-27T08:51:52.210Z,3.90
2017-12-27T08:54:20.356Z,2.80
2017-12-27T08:56:49.688Z,3.83
2017-12-27T08:59:18.610Z,4.73
2017-12-27T09:01:46.737Z,5.20
2017-12-27T09:04:15.620Z,3.90
2017-12-27T09:06:43.761Z,3.30
2017-12-27T09:09:11.916Z,2.40
2017-12-27T09:11:40.830Z,2.53
2017-12-27T09:14:09.717Z,3.20
2017-12-27T09:16:40.210Z,3.27
2017-12-27T09:19:08.368Z,3.50
2017-12-27T09:21:37.249Z,4.57
2017-12-27T09:24:07.013Z,7.80
2017-12-27T09:26:35.916Z,7.03
2017-12-27T09:29:04.074Z,4.90
2017-12-27T09:31:32.980Z,4.63
2017-12-27T09:34:01.911Z,4.33
2017-12-27T09:36:30.044Z,3.73
2017-12-27T09:38:59.074Z,2.83
2017-12-27T09:41:27.188Z,2.30
2017-12-27T09:43:55.340Z,4.73
2017-12-27T09:46:24.251Z,4.10
2017-12-27T09:48:52.391Z,4.77
2017-12-27T09:51:20.496Z,4.10
2017-12-27T09:53:48.675Z,3.90
2017-12-27T09:56:16.813Z,5.33
2017-12-27T09:58:44.952Z,30.40
2017-12-27T10:01:13.122Z,36.77
2017-12-27T10:03:41.371Z,12.17
2017-12-27T10:06:10.257Z,8.27
2017-12-27T10:08:38.396Z,8.10
2017-12-27T10:11:08.238Z,5.57
2017-12-27T10:13:36.361Z,5.70
2017-12-27T10:16:06.198Z,5.90
2017-12-27T10:18:34.317Z,5.13
2017-12-27T10:21:02.502Z,4.63
2017-12-27T10:23:30.619Z,4.60
2017-12-27T10:25:59.563Z,3.30
2017-12-27T10:28:27.710Z,3.80
2017-12-27T10:30:55.844Z,4.13
2017-12-27T10:33:23.986Z,5.10
2017-12-27T10:35:52.142Z,4.10
2017-12-27T10:38:20.294Z,4.13
2017-12-27T10:40:48.452Z,4.27
2017-12-27T10:43:17.388Z,3.90
2017-12-27T10:45:45.513Z,4.30
2017-12-27T10:48:13.661Z,4.50
2017-12-27T10:50:41.807Z,4.73
2017-12-27T10:53:10.724Z,7.27
2017-12-27T10:55:39.655Z,10.00
2017-12-27T10:58:07.800Z,9.73
2017-12-27T11:00:37.042Z,14.23
2017-12-27T11:03:05.954Z,16.10
2017-12-27T11:05:34.965Z,15.93
2017-12-27T11:08:03.119Z,13.70
2017-12-27T11:10:31.251Z,11.70
2017-12-27T11:12:59.457Z,8.40
2017-12-27T11:15:27.600Z,11.30
2017-12-27T11:17:55.758Z,13.97
2017-12-27T11:20:24.692Z,18.50
2017-12-27T11:22:53.586Z,42.10
2017-12-27T11:25:21.736Z,48.70
2017-12-27T11:27:49.887Z,41.07
2017-12-27T11:30:18.035Z,31.40
2017-12-27T11:32:46.170Z,26.20
2017-12-27T11:35:14.332Z,39.07
2017-12-27T11:37:42.484Z,38.80
2017-12-27T11:40:11.383Z,22.83
2017-12-27T11:42:40.304Z,21.47
2017-12-27T11:45:08.450Z,14.93
2017-12-27T11:47:36.596Z,13.50
2017-12-27T11:50:04.739Z,9.00
2017-12-27T11:52:34.392Z,11.60
2017-12-27T11:55:02.524Z,9.07
2017-12-27T11:57:31.722Z,7.70
2017-12-27T11:59:59.851Z,6.07
2017-12-27T12:02:28.758Z,4.50
2017-12-27T12:04:57.680Z,5.00
2017-12-27T12:07:26.567Z,4.97
2017-12-27T12:09:56.361Z,4.27
2017-12-27T12:12:24.508Z,3.90
2017-12-27T12:14:52.649Z,3.70
2017-12-27T12:17:24.123Z,4.03
2017-12-27T12:19:52.379Z,3.87
2017-12-27T12:22:20.516Z,3.63
2017-12-27T12:24:49.413Z,3.60
2017-12-27T12:27:18.325Z,3.40
2017-12-27T12:29:47.223Z,3.03
2017-12-27T12:32:15.359Z,2.87
2017-12-27T12:34:43.515Z,3.27
2017-12-27T12:37:11.630Z,3.43
2017-12-27T12:39:39.792Z,2.97
2017-12-27T12:42:07.912Z,4.03
2017-12-27T12:44:36.053Z,3.23
2017-12-27T12:47:04.184Z,3.40
2017-12-27T12:49:32.336Z,3.70
2017-12-27T12:52:00.470Z,4.40
2017-12-27T12:54:28.596Z,4.30
2017-12-27T12:56:56.760Z,3.73
2017-12-27T12:59:26.220Z,4.20
2017-12-27T13:01:55.149Z,4.67
2017-12-27T13:04:23.281Z,4.93
2017-12-27T13:06:52.155Z,4.47
2017-12-27T13:09:21.072Z,4.10
2017-12-27T13:11:49.982Z,4.53
2017-12-27T13:14:18.914Z,5.57
2017-12-27T13:16:47.244Z,5.53
2017-12-27T13:19:15.382Z,8.07
2017-12-27T13:21:43.532Z,7.23
2017-12-27T13:24:12.440Z,7.97
2017-12-27T13:26:44.976Z,12.87
2017-12-27T13:29:13.169Z,6.60
2017-12-27T13:31:41.334Z,5.70
2017-12-27T13:34:09.477Z,6.27
2017-12-27T13:36:37.644Z,4.57
2017-12-27T13:39:05.773Z,4.20
2017-12-27T13:41:33.933Z,3.30
2017-12-27T13:44:02.200Z,3.60
2017-12-27T13:46:30.345Z,3.83
2017-12-27T13:48:58.545Z,3.40
2017-12-27T13:51:27.438Z,3.50
2017-12-27T13:53:55.595Z,3.20
2017-12-27T13:56:24.498Z,2.90
2017-12-27T13:58:53.419Z,2.80
2017-12-27T14:01:22.303Z,3.77
2017-12-27T14:03:52.061Z,4.03
2017-12-27T14:06:20.956Z,2.97
2017-12-27T14:08:49.122Z,3.40
2017-12-27T14:11:18.060Z,3.87
2017-12-27T14:13:46.199Z,3.53
2017-12-27T14:16:14.338Z,3.43
2017-12-27T14:18:42.496Z,3.40
2017-12-27T14:21:11.468Z,3.10
2017-12-27T14:23:39.603Z,3.50
2017-12-27T14:26:07.757Z,5.13
2017-12-27T14:28:36.676Z,4.43
2017-12-27T14:31:05.569Z,5.37
2017-12-27T14:33:34.490Z,5.03
2017-12-27T14:36:02.614Z,5.00
2017-12-27T14:38:30.774Z,6.60
2017-12-27T14:40:58.901Z,7.40
2017-12-27T14:43:27.053Z,11.53
2017-12-27T14:45:55.183Z,11.77
2017-12-27T14:48:23.362Z,11.47
2017-12-27T14:50:51.512Z,6.00
2017-12-27T14:53:19.641Z,3.30
2017-12-27T14:55:47.801Z,3.10
2017-12-27T14:58:15.908Z,4.20
2017-12-27T15:00:44.047Z,4.30
2017-12-27T15:03:12.188Z,3.80
2017-12-27T15:05:40.304Z,4.20
2017-12-27T15:08:08.472Z,3.93
2017-12-27T15:10:37.378Z,4.23
2017-12-27T15:13:06.286Z,4.30
2017-12-27T15:15:35.229Z,4.23
2017-12-27T15:18:03.368Z,4.93
2017-12-27T15:20:31.571Z,4.50
2017-12-27T15:22:59.709Z,5.13
2017-12-27T15:25:28.588Z,6.17
2017-12-27T15:27:56.776Z,5.90
2017-12-27T15:30:24.903Z,6.80
2017-12-27T15:32:53.026Z,5.93
2017-12-27T15:35:21.179Z,6.03
2017-12-27T15:37:49.364Z,6.33
2017-12-27T15:40:17.521Z,6.47
2017-12-27T15:42:45.674Z,7.17
2017-12-27T15:45:13.839Z,7.57
2017-12-27T15:47:42.796Z,7.13
2017-12-27T15:50:10.949Z,7.93
2017-12-27T15:52:39.084Z,7.90
2017-12-27T15:55:07.244Z,7.67
2017-12-27T15:57:36.219Z,7.93
2017-12-27T16:00:05.124Z,9.80
2017-12-27T16:02:33.258Z,11.50
2017-12-27T16:05:01.427Z,11.10
2017-12-27T16:07:29.567Z,11.03
2017-12-27T16:09:58.519Z,11.80
2017-12-27T16:12:26.684Z,11.73
2017-12-27T16:14:54.812Z,9.53
2017-12-27T16:17:23.756Z,11.47
2017-12-27T16:19:52.668Z,13.27
2017-12-27T16:22:21.593Z,12.93
2017-12-27T16:24:49.737Z,11.17
2017-12-27T16:27:17.899Z,13.70
2017-12-27T16:29:46.033Z,13.00
2017-12-27T16:32:14.345Z,10.93
2017-12-27T16:34:42.505Z,9.13
2017-12-27T16:37:11.399Z,9.60
2017-12-27T16:39:40.305Z,9.17
2017-12-27T16:42:09.201Z,8.30
2017-12-27T16:44:38.133Z,7.43
2017-12-27T16:47:06.264Z,8.13
2017-12-27T16:49:34.435Z,8.93
2017-12-27T16:52:02.572Z,9.30
2017-12-27T16:54:31.523Z,8.57
2017-12-27T16:56:59.700Z,8.57
2017-12-27T16:59:27.839Z,6.70
2017-12-27T17:01:56.732Z,6.33
2017-12-27T17:04:26.199Z,6.67
2017-12-27T17:06:54.339Z,6.87
2017-12-27T17:09:22.501Z,8.50
2017-12-27T17:11:50.646Z,7.83
2017-12-27T17:14:19.405Z,9.30
2017-12-27T17:16:47.545Z,9.67
2017-12-27T17:19:15.696Z,9.30
2017-12-27T17:21:45.480Z,8.90
2017-12-27T17:24:13.639Z,9.60
2017-12-27T17:26:41.805Z,8.53
2017-12-27T17:29:10.697Z,11.23
2017-12-27T17:31:38.861Z,16.07
2017-12-27T17:34:07.028Z,18.30
2017-12-27T17:36:35.198Z,22.53
2017-12-27T17:39:03.373Z,18.50
2017-12-27T17:41:31.526Z,19.70
2017-12-27T17:44:00.456Z,18.87
2017-12-27T17:46:28.596Z,17.17
2017-12-27T17:48:56.773Z,16.27
2017-12-27T17:51:24.910Z,12.03
2017-12-27T17:53:53.052Z,11.87
2017-12-27T17:56:21.248Z,11.10
2017-12-27T17:58:49.577Z,10.63
2017-12-27T18:01:17.706Z,9.80
2017-12-27T18:03:45.856Z,7.47
2017-12-27T18:06:13.998Z,8.73
2017-12-27T18:08:42.954Z,8.60
2017-12-27T18:11:11.099Z,8.63
2017-12-27T18:13:40.021Z,11.70
2017-12-27T18:16:08.196Z,11.73
2017-12-27T18:18:37.092Z,13.53
2017-12-27T18:21:05.999Z,13.13
2017-12-27T18:23:34.929Z,9.87
2017-12-27T18:26:03.062Z,11.97
2017-12-27T18:28:31.230Z,14.23
2017-12-27T18:30:59.365Z,12.90
2017-12-27T18:33:28.296Z,8.10
2017-12-27T18:35:56.461Z,8.00
2017-12-27T18:38:25.392Z,7.60
2017-12-27T18:40:53.504Z,9.17
2017-12-27T18:43:21.709Z,9.63
2017-12-27T18:45:49.820Z,12.03
2017-12-27T18:48:17.978Z,9.50
2017-12-27T18:50:46.125Z,9.93
2017-12-27T18:53:14.969Z,9.30
2017-12-27T18:55:43.107Z,7.63
2017-12-27T18:58:12.012Z,8.97
2017-12-27T19:00:41.110Z,8.67
2017-12-27T19:03:09.256Z,9.07
2017-12-27T19:05:38.190Z,9.40
2017-12-27T19:08:07.106Z,8.17
2017-12-27T19:10:36.135Z,7.73
2017-12-27T19:13:05.082Z,9.90
2017-12-27T19:15:34.004Z,10.33
2017-12-27T19:18:02.164Z,9.13
2017-12-27T19:20:30.331Z,9.40
2017-12-27T19:22:58.468Z,11.20
2017-12-27T19:25:26.671Z,8.80
2017-12-27T19:27:54.808Z,12.80
2017-12-27T19:30:22.983Z,10.07
2017-12-27T19:32:51.132Z,10.70
2017-12-27T19:35:19.378Z,7.77
2017-12-27T19:37:48.502Z,8.97
2017-12-27T19:40:17.432Z,9.20
2017-12-27T19:42:45.567Z,9.87
2017-12-27T19:45:14.782Z,12.30
2017-12-27T19:47:42.933Z,12.03
2017-12-27T19:50:12.942Z,14.50
2017-12-27T19:52:42.085Z,12.83
2017-12-27T19:55:11.759Z,13.03
2017-12-27T19:57:41.606Z,13.10
2017-12-27T20:00:09.789Z,12.70
2017-12-27T20:02:37.956Z,13.63
2017-12-27T20:05:07.541Z,12.30
2017-12-27T20:07:35.715Z,10.00
2017-12-27T20:10:04.664Z,10.97
2017-12-27T20:12:32.841Z,9.40
2017-12-27T20:15:01.009Z,8.30
2017-12-27T20:17:29.903Z,8.70
2017-12-27T20:19:58.069Z,7.40
2017-12-27T20:22:26.238Z,5.13
2017-12-27T20:24:54.372Z,4.50
2017-12-27T20:27:22.529Z,3.50
2017-12-27T20:29:50.703Z,2.50
2017-12-27T20:32:18.888Z,3.47
2017-12-27T20:34:47.077Z,2.53
2017-12-27T20:37:15.248Z,2.60
2017-12-27T20:39:43.389Z,2.63
2017-12-27T20:42:11.533Z,2.67
2017-12-27T20:44:39.687Z,3.13
2017-12-27T20:47:08.609Z,2.60
2017-12-27T20:49:36.762Z,2.10
2017-12-27T20:52:04.930Z,1.90
2017-12-27T20:54:33.080Z,1.80
2017-12-27T20:57:01.219Z,2.50
2017-12-27T20:59:29.371Z,1.73
2017-12-27T21:01:57.550Z,2.00
2017-12-27T21:04:25.685Z,1.80
2017-12-27T21:06:54.596Z,1.77
2017-12-27T21:09:23.503Z,1.53
2017-12-27T21:11:51.673Z,1.60
2017-12-27T21:14:21.602Z,2.10
2017-12-27T21:16:51.589Z,1.60
2017-12-27T21:19:19.741Z,2.20
2017-12-27T21:21:47.920Z,2.00
2017-12-27T21:24:16.830Z,1.60
2017-12-27T21:26:45.725Z,2.17
2017-12-27T21:29:15.221Z,2.33
2017-12-27T21:31:44.545Z,2.00
2017-12-27T21:34:13.684Z,1.80
2017-12-27T21:36:41.836Z,2.30
2017-12-27T21:39:10.744Z,2.17
2017-12-27T21:41:39.811Z,2.13
2017-12-27T21:44:07.961Z,2.47
2017-12-27T21:46:36.890Z,2.17
2017-12-27T21:49:21.839Z,1.70
2017-12-27T21:51:49.984Z,1.77
2017-12-27T21:54:18.126Z,1.90
2017-12-27T21:56:46.249Z,1.70
2017-12-27T21:59:20.107Z,1.93
2017-12-27T22:01:48.245Z,1.63
2017-12-27T22:04:16.393Z,1.47
2017-12-27T22:06:44.574Z,1.40
2017-12-27T22:09:12.718Z,1.70
2017-12-27T22:11:40.870Z,1.40
2017-12-27T22:14:09.008Z,1.57
2017-12-27T22:16:37.920Z,1.30
2017-12-27T22:19:06.851Z,1.80
2017-12-27T22:21:35.013Z,2.37
2017-12-27T22:24:04.078Z,2.30
2017-12-27T22:26:32.267Z,2.50
2017-12-27T22:29:00.405Z,3.80
2017-12-27T22:31:28.554Z,2.70
2017-12-27T22:33:56.696Z,3.13
2017-12-27T22:36:25.653Z,1.97
2017-12-27T22:38:54.601Z,1.90
2017-12-27T22:41:22.742Z,2.00
2017-12-27T22:43:50.865Z,1.70
2017-12-27T22:46:19.034Z,1.70
2017-12-27T22:48:48.989Z,1.70
2017-12-27T22:51:17.123Z,1.40
2017-12-27T22:53:45.268Z,1.60
2017-12-27T22:56:13.427Z,2.13
2017-12-27T22:58:42.327Z,1.70
2017-12-27T23:01:11.231Z,1.80
2017-12-27T23:03:40.171Z,1.50
2017-12-27T23:06:08.301Z,1.73
2017-12-27T23:08:37.245Z,1.50
2017-12-27T23:11:05.389Z,2.00
2017-12-27T23:13:33.575Z,2.00
2017-12-27T23:16:01.695Z,1.90
2017-12-27T23:18:29.833Z,1.90
2017-12-27T23:20:57.988Z,2.40
2017-12-27T23:23:26.099Z,2.03
2017-12-27T23:25:54.256Z,2.37
2017-12-27T23:28:22.401Z,1.90
2017-12-27T23:30:51.349Z,2.10
2017-12-27T23:33:19.465Z,2.53
2017-12-27T23:35:48.382Z,2.07
2017-12-27T23:38:16.511Z,1.93
2017-12-27T23:40:44.629Z,2.00
2017-12-27T23:43:12.760Z,2.07
2017-12-27T23:45:41.694Z,2.03
2017-12-27T23:48:09.840Z,2.23
2017-12-27T23:50:37.970Z,2.10
2017-12-27T23:53:06.123Z,1.90
2017-12-27T23:55:35.036Z,2.13
2017-12-27T23:58:03.212Z,2.17
